Villatuerta, Spain

12:49 AM CEST on September 03, 2015 (GMT +0200)
Tafalla-Cerro | | Change Station
CLOSE
Current Station
Personal Weather Station
Location: Tafalla, NAVARRA
Elevation: 1499 ft
Nearby Weather Stations

Elev 1499 ft 42.53 °N, 1.68 °W | Updated 19 minutes ago

Light Rain
Light Rain
59.7 °F
Feels Like 59.7 °F
N
2.0
Wind Variable Wind from WNW
Gusts 3.0 mph

Today
High -- | Low -- °F
--% Chance of Precip.
Yesterday
High -- | Low -- °F
Precip. -- in
7:34 AM 8:39 PM
Waning Gibbous, 76% visible
Pressure 30.06 in
Visibility 5.6 miles
Clouds Mostly Cloudy 2200 ft
Few 3000 ft
Dew Point 57 °F
Humidity 91%
Rainfall in
Snow Depth Not available.
UV 0 out of 12
Pollen Not available.
Air Quality Not available.
Flu Activity Not available.
METAR LEPP 022200Z 29005KT 260V340 9000 -RA BKN022 FEW030CB 15/14 Q1018
Pressure 30.06 in
Visibility 5.6 miles
Clouds Mostly Cloudy 2200 ft
Few 3000 ft
Dew Point 57 °F
Humidity 91%
Rainfall in
Snow Depth Not available.
UV 0 out of 12
Pollen Not available.
Air Quality Not available.
Flu Activity Not available.
METAR LEPP 022200Z 29005KT 260V340 9000 -RA BKN022 FEW030CB 15/14 Q1018

10-Day Weather Forecast

×

Almanac

Astronomy

Sep. 03, 2015 Rise Set
Actual Time
Civil Twilight
Nautical Twilight
Astronomical Twilight
Moon
Length of Visible Light
Length of Day
Tomorrow will be .
, % of the Moon is Illuminated

Today's Extremes

Country Highs Country Lows

Community

WunderPhotos

Upload Photos

1,851,822 photos uploaded!

WunderBlogs® & News

Nearby

Air Quality

  Air Quality AQ Index Pollutant
Not available.

Snow Depth

Station Depth Elevation

Earthquake Activity

City Distance Mag. Time & Date
Minimum magnitude displayed is 2.5.

Coastal Water Temperatures

Place Temperature

Stations

Nearby Weather Stations

Station Location Temp. Windchill Dew Point Humidity Wind Precip. Elev Updated Type